createdAt,value
2022-07-30T00:00:55.733Z,6.75
2022-07-30T00:03:23.568Z,6.38
2022-07-30T00:05:51.408Z,6.63
2022-07-30T00:08:19.109Z,6.90
2022-07-30T00:10:46.803Z,6.85
2022-07-30T00:13:18.256Z,7.97
2022-07-30T00:15:46.069Z,7.40
2022-07-30T00:18:15.242Z,8.25
2022-07-30T00:20:44.266Z,7.35
2022-07-30T00:23:12.184Z,6.68
2022-07-30T00:25:39.987Z,7.70
2022-07-30T00:28:07.810Z,7.57
2022-07-30T00:30:35.559Z,8.77
2022-07-30T00:33:03.574Z,8.02
2022-07-30T00:35:32.779Z,8.48
2022-07-30T00:38:00.511Z,9.07
2022-07-30T00:40:28.427Z,8.68
2022-07-30T00:42:56.209Z,8.38
2022-07-30T00:45:24.058Z,8.00
2022-07-30T00:47:51.831Z,7.30
2022-07-30T00:50:19.558Z,7.10
2022-07-30T00:52:50.922Z,8.27
2022-07-30T00:55:18.706Z,7.30
2022-07-30T00:57:46.456Z,8.18
2022-07-30T01:00:17.302Z,8.00
2022-07-30T01:02:45.250Z,6.93
2022-07-30T01:05:13.224Z,7.95
2022-07-30T01:07:41.024Z,8.50
2022-07-30T01:10:12.524Z,8.63
2022-07-30T01:12:41.535Z,9.67
2022-07-30T01:15:11.231Z,8.77
2022-07-30T01:17:39.174Z,7.40
2022-07-30T01:20:10.632Z,6.95
2022-07-30T01:22:48.890Z,7.60
2022-07-30T01:25:30.218Z,7.97
2022-07-30T01:28:01.877Z,9.82
2022-07-30T01:30:32.630Z,8.77
2022-07-30T01:33:03.755Z,8.73
2022-07-30T01:35:34.250Z,8.43
2022-07-30T01:38:05.405Z,8.93
2022-07-30T01:40:33.770Z,8.20
2022-07-30T01:43:04.260Z,9.48
2022-07-30T01:45:33.856Z,8.90
2022-07-30T01:48:12.236Z,8.68
2022-07-30T01:50:45.172Z,9.15
2022-07-30T01:53:16.749Z,8.10
2022-07-30T01:55:45.542Z,9.67
2022-07-30T01:58:17.572Z,10.63
2022-07-30T02:00:47.784Z,8.77
2022-07-30T02:03:15.754Z,10.35
2022-07-30T02:05:52.668Z,10.68
2022-07-30T02:08:28.752Z,10.80
2022-07-30T02:11:01.589Z,9.77
2022-07-30T02:13:32.041Z,10.40
2022-07-30T02:16:06.473Z,12.25
2022-07-30T02:18:40.083Z,9.40
2022-07-30T02:21:10.858Z,9.75
2022-07-30T02:23:45.255Z,9.70
2022-07-30T02:26:16.018Z,9.60
2022-07-30T02:28:48.884Z,11.77
2022-07-30T02:31:20.664Z,11.98
2022-07-30T02:33:50.923Z,12.48
2022-07-30T02:36:20.066Z,11.65
2022-07-30T02:38:50.702Z,12.85
2022-07-30T02:41:20.204Z,12.02
2022-07-30T02:43:50.889Z,13.05
2022-07-30T02:46:20.187Z,11.82
2022-07-30T02:48:50.280Z,13.77
2022-07-30T02:51:21.313Z,12.57
2022-07-30T02:53:51.995Z,11.45
2022-07-30T02:56:22.270Z,12.93
2022-07-30T02:58:52.848Z,12.43
2022-07-30T03:01:24.050Z,12.75
2022-07-30T03:03:53.158Z,12.48
2022-07-30T03:06:22.118Z,12.13
2022-07-30T03:08:50.523Z,15.18
2022-07-30T03:11:20.770Z,13.40
2022-07-30T03:13:48.739Z,13.95
2022-07-30T03:16:19.790Z,16.08
2022-07-30T03:18:49.245Z,12.05
2022-07-30T03:21:18.076Z,13.95
2022-07-30T03:23:47.903Z,15.00
2022-07-30T03:26:17.486Z,12.50
2022-07-30T03:28:47.060Z,16.92
2022-07-30T03:31:17.327Z,16.00
2022-07-30T03:33:46.435Z,11.35
2022-07-30T03:36:16.820Z,14.45
2022-07-30T03:38:46.079Z,16.80
2022-07-30T03:41:14.754Z,13.60
2022-07-30T03:43:43.044Z,14.38
2022-07-30T03:46:12.092Z,18.17
2022-07-30T03:48:42.285Z,15.95
2022-07-30T03:51:10.986Z,17.70
2022-07-30T03:53:41.312Z,17.63
2022-07-30T03:56:09.467Z,15.02
2022-07-30T03:58:38.746Z,16.80
2022-07-30T04:01:06.682Z,17.55
2022-07-30T04:03:35.015Z,13.40
2022-07-30T04:06:04.133Z,15.63
2022-07-30T04:08:32.354Z,12.85
2022-07-30T04:11:00.098Z,14.25
2022-07-30T04:13:27.875Z,17.60
2022-07-30T04:16:37.229Z,14.77
2022-07-30T04:18:51.636Z,15.73
2022-07-30T04:21:23.622Z,14.85
2022-07-30T04:24:02.173Z,12.57
2022-07-30T04:26:34.017Z,13.43
2022-07-30T04:29:05.245Z,17.63
2022-07-30T04:31:40.597Z,14.05
2022-07-30T04:34:09.549Z,13.98
2022-07-30T04:36:40.542Z,18.85
2022-07-30T04:39:09.986Z,14.23
2022-07-30T04:41:48.787Z,15.68
2022-07-30T04:44:18.255Z,17.30
2022-07-30T04:46:46.216Z,21.40
2022-07-30T04:49:16.934Z,22.55
2022-07-30T04:51:47.583Z,22.98
2022-07-30T04:54:17.043Z,22.92
2022-07-30T04:56:53.136Z,23.77
2022-07-30T04:59:24.767Z,24.35
2022-07-30T05:01:53.254Z,32.80
2022-07-30T05:04:23.065Z,22.40
2022-07-30T05:06:53.185Z,28.33
2022-07-30T05:09:21.198Z,34.67
2022-07-30T05:11:52.627Z,29.15
2022-07-30T05:14:20.547Z,31.20
2022-07-30T05:16:48.319Z,28.75
2022-07-30T05:19:16.025Z,33.25
2022-07-30T05:21:43.787Z,34.08
2022-07-30T05:24:13.202Z,34.17
2022-07-30T05:26:41.573Z,36.55
2022-07-30T05:29:09.420Z,32.38
2022-07-30T05:31:46.402Z,36.78
2022-07-30T05:34:14.488Z,40.60
2022-07-30T05:36:42.757Z,36.65
2022-07-30T05:39:11.862Z,43.33
2022-07-30T05:41:39.572Z,35.72
2022-07-30T05:44:07.362Z,35.50
2022-07-30T05:46:35.339Z,39.53
2022-07-30T05:49:03.609Z,37.47
2022-07-30T05:51:31.369Z,36.38
2022-07-30T05:53:59.138Z,32.83
2022-07-30T05:56:28.204Z,36.80
2022-07-30T05:58:56.100Z,32.00
2022-07-30T06:01:23.874Z,29.35
2022-07-30T06:03:51.583Z,31.52
2022-07-30T06:06:22.926Z,39.20
2022-07-30T06:08:51.108Z,38.28
2022-07-30T06:11:18.960Z,35.47
2022-07-30T06:13:48.047Z,35.75
2022-07-30T06:16:16.051Z,40.70
2022-07-30T06:18:43.803Z,42.55
2022-07-30T06:21:11.622Z,38.75
2022-07-30T06:23:39.342Z,39.55
2022-07-30T06:26:07.252Z,30.55
2022-07-30T06:28:37.954Z,25.30
2022-07-30T06:31:07.968Z,26.83
2022-07-30T06:33:35.827Z,22.20
2022-07-30T06:36:03.666Z,26.35
2022-07-30T06:38:31.495Z,26.92
2022-07-30T06:41:02.893Z,23.45
2022-07-30T06:43:32.293Z,21.85
2022-07-30T06:46:00.339Z,22.40
2022-07-30T06:48:31.391Z,23.77
2022-07-30T06:50:59.150Z,23.88
2022-07-30T06:53:26.927Z,22.17
2022-07-30T06:55:58.467Z,19.88
2022-07-30T06:58:29.195Z,24.65
2022-07-30T07:00:57.174Z,21.67
2022-07-30T07:03:26.234Z,21.63
2022-07-30T07:08:37.343Z,20.73
2022-07-30T07:11:05.071Z,20.25
2022-07-30T07:13:32.768Z,19.55
2022-07-30T07:16:00.583Z,18.80
2022-07-30T07:18:28.333Z,18.35
2022-07-30T07:20:56.112Z,19.15
2022-07-30T07:23:25.389Z,19.60
2022-07-30T07:26:07.709Z,20.23
2022-07-30T07:28:35.453Z,20.38
2022-07-30T07:31:03.317Z,17.05
2022-07-30T07:33:31.378Z,22.02
2022-07-30T07:35:59.124Z,20.02
2022-07-30T07:38:28.336Z,21.42
2022-07-30T07:40:56.132Z,20.90
2022-07-30T07:43:25.189Z,21.70
2022-07-30T07:45:53.037Z,17.20
2022-07-30T07:48:20.762Z,17.00
2022-07-30T07:50:49.021Z,17.45
2022-07-30T07:53:16.819Z,15.48
2022-07-30T07:55:45.967Z,15.73
2022-07-30T07:58:15.548Z,15.55
2022-07-30T08:00:53.350Z,13.02
2022-07-30T08:03:21.080Z,11.98
2022-07-30T08:05:53.858Z,11.20
2022-07-30T08:08:28.913Z,10.65
2022-07-30T08:10:58.083Z,10.52
2022-07-30T08:13:48.306Z,12.13
2022-07-30T08:16:14.583Z,9.68
2022-07-30T08:18:42.411Z,12.35
2022-07-30T08:21:15.670Z,10.35
2022-07-30T08:23:43.439Z,10.05
2022-07-30T08:26:12.588Z,8.60
2022-07-30T08:28:40.400Z,10.23
2022-07-30T08:31:08.168Z,10.02
2022-07-30T08:33:36.013Z,8.55
2022-07-30T08:36:09.122Z,9.68
2022-07-30T08:38:37.803Z,11.13
2022-07-30T08:41:05.674Z,10.90
2022-07-30T08:43:37.080Z,8.75
2022-07-30T08:46:09.238Z,8.17
2022-07-30T08:48:37.314Z,7.80
2022-07-30T08:51:05.594Z,7.90
2022-07-30T08:53:34.628Z,8.68
2022-07-30T08:56:02.890Z,8.05
2022-07-30T08:58:32.337Z,11.63
2022-07-30T09:01:01.539Z,9.43
2022-07-30T09:03:29.462Z,8.32
2022-07-30T09:05:57.210Z,8.45
2022-07-30T09:08:25.006Z,8.52
2022-07-30T09:10:53.049Z,7.95
2022-07-30T09:13:25.840Z,8.02
2022-07-30T09:15:54.300Z,8.10
2022-07-30T09:18:32.887Z,7.70
2022-07-30T09:21:02.248Z,8.40
2022-07-30T09:23:30.236Z,8.43
2022-07-30T09:26:00.543Z,7.70
2022-07-30T09:28:31.431Z,6.40
2022-07-30T09:30:59.352Z,6.40
2022-07-30T09:33:40.319Z,6.03
2022-07-30T09:36:10.187Z,6.05
2022-07-30T09:38:48.743Z,6.32
2022-07-30T09:41:37.835Z,6.55
2022-07-30T09:44:06.745Z,5.80
2022-07-30T09:46:47.302Z,5.80
2022-07-30T09:49:17.848Z,5.40
2022-07-30T09:51:55.967Z,5.57
2022-07-30T09:54:25.387Z,5.60
2022-07-30T09:57:23.136Z,5.10
2022-07-30T09:59:55.667Z,4.57
2022-07-30T10:02:32.377Z,4.25
2022-07-30T10:05:14.244Z,4.10
2022-07-30T10:07:51.281Z,4.65
2022-07-30T10:10:25.808Z,5.03
2022-07-30T10:12:59.066Z,3.78
2022-07-30T10:15:32.636Z,3.88
2022-07-30T10:18:01.610Z,3.75
2022-07-30T10:20:31.134Z,3.58
2022-07-30T10:23:07.800Z,3.97
2022-07-30T10:25:49.309Z,4.93
2022-07-30T10:28:23.140Z,3.60
2022-07-30T10:30:52.451Z,4.20
2022-07-30T10:33:36.609Z,3.28
2022-07-30T10:36:12.054Z,3.65
2022-07-30T10:38:42.934Z,3.67
2022-07-30T10:41:42.610Z,3.58
2022-07-30T10:44:26.679Z,4.07
2022-07-30T10:47:07.240Z,4.20
2022-07-30T10:49:40.912Z,3.25
2022-07-30T10:52:12.712Z,3.40
2022-07-30T10:54:42.707Z,3.53
2022-07-30T10:57:15.085Z,3.40
2022-07-30T11:00:15.441Z,3.17
2022-07-30T11:03:16.573Z,3.53
2022-07-30T11:05:48.208Z,3.20
2022-07-30T11:08:36.575Z,3.40
2022-07-30T11:11:19.362Z,3.25
2022-07-30T11:13:53.457Z,3.10
2022-07-30T11:16:23.764Z,2.90
2022-07-30T11:22:26.219Z,3.10
2022-07-30T11:24:56.566Z,3.30
2022-07-30T11:27:42.051Z,3.10
2022-07-30T11:30:34.855Z,3.17
2022-07-30T11:33:32.882Z,3.40
2022-07-30T11:36:12.468Z,4.07
2022-07-30T11:39:03.647Z,3.30
2022-07-30T11:41:34.540Z,3.17
2022-07-30T11:44:28.541Z,2.80
2022-07-30T11:46:56.517Z,3.95
2022-07-30T11:49:24.364Z,3.20
2022-07-30T11:51:52.180Z,4.00
2022-07-30T11:54:20.028Z,3.17
2022-07-30T11:56:54.218Z,3.22
2022-07-30T11:59:22.198Z,3.88
2022-07-30T12:01:55.934Z,3.15
2022-07-30T12:04:24.443Z,4.63
2022-07-30T12:06:52.412Z,2.97
2022-07-30T12:09:27.592Z,3.20
2022-07-30T12:11:57.383Z,3.75
2022-07-30T12:14:25.468Z,4.53
2022-07-30T12:16:55.188Z,4.20
2022-07-30T12:19:23.095Z,3.55
2022-07-30T12:21:53.603Z,4.20
2022-07-30T12:24:26.712Z,3.60
2022-07-30T12:27:06.745Z,2.80
2022-07-30T12:29:35.598Z,2.72
2022-07-30T12:32:03.583Z,2.97
2022-07-30T12:34:31.491Z,3.38
2022-07-30T12:37:09.833Z,2.80
2022-07-30T12:39:37.788Z,3.38
2022-07-30T12:42:07.193Z,3.83
2022-07-30T12:44:36.888Z,4.00
2022-07-30T12:47:05.939Z,3.30
2022-07-30T12:49:39.334Z,2.90
2022-07-30T12:52:28.321Z,3.05
2022-07-30T12:55:05.940Z,3.60
2022-07-30T12:57:59.363Z,4.80
2022-07-30T13:00:33.203Z,3.88
2022-07-30T13:03:01.035Z,3.30
2022-07-30T13:05:48.398Z,3.30
2022-07-30T13:08:16.456Z,3.38
2022-07-30T13:10:59.207Z,3.60
2022-07-30T13:13:29.075Z,3.22
2022-07-30T13:16:01.516Z,3.70
2022-07-30T13:18:30.794Z,3.63
2022-07-30T13:20:59.134Z,3.55
2022-07-30T13:23:28.341Z,3.65
2022-07-30T13:25:56.276Z,2.90
2022-07-30T13:28:24.964Z,2.90
2022-07-30T13:30:54.172Z,2.90
2022-07-30T13:33:22.448Z,2.67
2022-07-30T13:35:50.243Z,2.58
2022-07-30T13:38:18.029Z,2.33
2022-07-30T13:40:45.917Z,2.33
2022-07-30T13:43:13.667Z,2.30
2022-07-30T13:45:41.459Z,2.40
2022-07-30T13:48:10.694Z,2.60
2022-07-30T13:50:38.542Z,2.70
2022-07-30T13:53:06.580Z,2.70
2022-07-30T13:55:34.504Z,2.67
2022-07-30T13:58:02.380Z,2.70
2022-07-30T14:00:32.523Z,2.47
2022-07-30T14:03:01.562Z,2.60
2022-07-30T14:05:31.022Z,2.90
2022-07-30T14:07:58.884Z,2.80
2022-07-30T14:10:26.752Z,2.97
2022-07-30T14:12:56.724Z,2.80
2022-07-30T14:15:25.484Z,2.40
2022-07-30T14:17:56.222Z,2.60
2022-07-30T14:20:25.112Z,2.17
2022-07-30T14:22:58.591Z,2.50
2022-07-30T14:25:26.446Z,2.20
2022-07-30T14:27:54.264Z,2.50
2022-07-30T14:30:24.474Z,2.15
2022-07-30T14:32:58.303Z,2.40
2022-07-30T14:35:28.360Z,2.20
2022-07-30T14:37:56.125Z,2.00
2022-07-30T14:40:25.445Z,2.47
2022-07-30T14:42:53.289Z,2.30
2022-07-30T14:45:24.340Z,2.17
2022-07-30T14:47:53.596Z,2.03
2022-07-30T14:50:21.395Z,2.08
2022-07-30T14:52:49.469Z,2.50
2022-07-30T14:55:17.430Z,2.58
2022-07-30T14:57:46.642Z,2.20
2022-07-30T15:00:15.349Z,2.10
2022-07-30T15:02:43.146Z,2.20
2022-07-30T15:05:11.039Z,3.55
2022-07-30T15:07:38.831Z,2.50
2022-07-30T15:10:08.265Z,2.33
2022-07-30T15:12:37.069Z,2.20
2022-07-30T15:15:07.800Z,2.30
2022-07-30T15:17:37.516Z,2.13
2022-07-30T15:20:07.791Z,2.38
2022-07-30T15:22:35.695Z,1.90
2022-07-30T15:25:03.545Z,2.30
2022-07-30T15:27:33.971Z,2.40
2022-07-30T15:30:02.726Z,2.05
2022-07-30T15:32:31.937Z,2.63
2022-07-30T15:34:59.811Z,2.47
2022-07-30T15:37:29.639Z,2.50
2022-07-30T15:39:57.451Z,2.10
2022-07-30T15:42:27.217Z,2.22
2022-07-30T15:45:15.911Z,2.10
2022-07-30T15:47:44.461Z,2.38
2022-07-30T15:50:12.270Z,2.60
2022-07-30T15:52:40.261Z,2.33
2022-07-30T15:55:09.409Z,2.45
2022-07-30T15:57:37.408Z,2.40
2022-07-30T16:00:07.556Z,2.50
2022-07-30T16:02:35.481Z,4.70
2022-07-30T16:05:19.002Z,2.45
2022-07-30T16:07:46.949Z,3.90
2022-07-30T16:10:14.918Z,3.60
2022-07-30T16:12:43.018Z,2.40
2022-07-30T16:15:11.514Z,2.35
2022-07-30T16:17:39.453Z,2.40
2022-07-30T16:20:23.725Z,2.30
2022-07-30T16:22:59.869Z,2.42
2022-07-30T16:25:35.212Z,2.40
2022-07-30T16:28:04.320Z,2.75
2022-07-30T16:30:50.502Z,2.38
2022-07-30T16:33:20.337Z,2.80
2022-07-30T16:35:52.912Z,2.78
2022-07-30T16:38:23.201Z,2.50
2022-07-30T16:40:51.212Z,2.20
2022-07-30T16:43:19.567Z,2.72
2022-07-30T16:45:48.130Z,2.75
2022-07-30T16:48:16.153Z,2.75
2022-07-30T16:50:44.933Z,3.33
2022-07-30T16:53:20.380Z,2.60
2022-07-30T16:55:49.479Z,2.30
2022-07-30T16:58:17.827Z,2.70
2022-07-30T17:00:49.334Z,2.70
2022-07-30T17:03:20.309Z,2.50
2022-07-30T17:05:50.433Z,2.20
2022-07-30T17:08:24.707Z,2.20
2022-07-30T17:10:53.413Z,2.30
2022-07-30T17:13:21.524Z,2.17
2022-07-30T17:15:49.752Z,2.53
2022-07-30T17:18:23.735Z,2.35
2022-07-30T17:20:52.057Z,2.08
2022-07-30T17:23:21.165Z,2.63
2022-07-30T17:25:48.988Z,2.70
2022-07-30T17:28:18.082Z,4.45
2022-07-30T17:30:46.126Z,2.53
2022-07-30T17:33:13.827Z,2.30
2022-07-30T17:35:41.599Z,2.30
2022-07-30T17:38:11.868Z,2.40
2022-07-30T17:41:05.817Z,3.15
2022-07-30T17:43:33.709Z,2.28
2022-07-30T17:46:01.539Z,2.63
2022-07-30T17:48:29.293Z,2.42
2022-07-30T17:50:57.820Z,2.38
2022-07-30T17:53:25.650Z,2.33
2022-07-30T17:55:57.658Z,5.10
2022-07-30T17:58:26.104Z,5.35
2022-07-30T18:00:59.031Z,2.50
2022-07-30T18:03:28.458Z,2.53
2022-07-30T18:05:57.201Z,3.08
2022-07-30T18:08:25.918Z,2.80
2022-07-30T18:10:56.371Z,2.40
2022-07-30T18:13:27.582Z,2.60
2022-07-30T18:15:55.488Z,2.77
2022-07-30T18:18:23.354Z,2.60
2022-07-30T18:20:51.207Z,3.00
2022-07-30T18:23:20.038Z,2.40
2022-07-30T18:25:53.195Z,2.90
2022-07-30T18:28:24.477Z,2.60
2022-07-30T18:30:52.437Z,3.08
2022-07-30T18:33:20.301Z,2.80
2022-07-30T18:35:48.367Z,2.95
2022-07-30T18:38:16.397Z,2.60
2022-07-30T18:40:44.974Z,2.85
2022-07-30T18:43:13.330Z,3.40
2022-07-30T18:45:47.402Z,2.58
2022-07-30T18:48:17.148Z,2.28
2022-07-30T18:50:45.126Z,2.75
2022-07-30T18:53:15.199Z,2.60
2022-07-30T18:55:43.919Z,2.85
2022-07-30T18:58:12.410Z,2.70
2022-07-30T19:00:43.267Z,3.03
2022-07-30T19:03:17.517Z,2.80
2022-07-30T19:05:48.988Z,3.92
2022-07-30T19:08:16.861Z,3.80
2022-07-30T19:10:44.983Z,3.72
2022-07-30T19:13:13.005Z,3.40
2022-07-30T19:15:40.873Z,3.67
2022-07-30T19:18:10.256Z,3.45
2022-07-30T19:20:39.496Z,2.88
2022-07-30T19:23:08.979Z,3.00
2022-07-30T19:25:39.205Z,3.10
2022-07-30T19:28:07.321Z,2.75
2022-07-30T19:30:35.638Z,2.70
2022-07-30T19:33:04.947Z,2.42
2022-07-30T19:35:33.028Z,2.78
2022-07-30T19:38:02.469Z,2.38
2022-07-30T19:40:30.577Z,2.70
2022-07-30T19:43:02.030Z,2.63
2022-07-30T19:45:47.490Z,2.97
2022-07-30T19:48:28.879Z,2.92
2022-07-30T19:51:02.589Z,3.10
2022-07-30T19:56:16.967Z,2.88
2022-07-30T19:58:47.377Z,3.10
2022-07-30T20:01:15.831Z,3.17
2022-07-30T20:03:45.805Z,3.20
2022-07-30T20:06:16.172Z,4.05
2022-07-30T20:08:46.146Z,3.70
2022-07-30T20:11:21.357Z,3.30
2022-07-30T20:14:04.979Z,3.22
2022-07-30T20:16:35.555Z,3.22
2022-07-30T20:19:04.544Z,3.30
2022-07-30T20:21:56.286Z,2.90
2022-07-30T20:24:26.745Z,3.40
2022-07-30T20:26:54.562Z,2.97
2022-07-30T20:29:33.220Z,3.50
2022-07-30T20:32:03.565Z,3.30
2022-07-30T20:34:32.657Z,3.53
2022-07-30T20:37:15.732Z,3.30
2022-07-30T20:39:51.982Z,3.20
2022-07-30T20:44:54.386Z,3.30
2022-07-30T20:47:38.104Z,3.30
2022-07-30T20:50:09.399Z,3.08
2022-07-30T20:52:46.802Z,3.40
2022-07-30T20:55:17.924Z,3.10
2022-07-30T20:57:56.699Z,3.58
2022-07-30T21:00:31.650Z,3.40
2022-07-30T21:02:59.555Z,3.20
2022-07-30T21:05:31.676Z,3.33
2022-07-30T21:08:00.050Z,3.20
2022-07-30T21:10:30.088Z,3.40
2022-07-30T21:13:03.489Z,3.90
2022-07-30T21:15:32.918Z,3.58
2022-07-30T21:18:01.639Z,3.25
2022-07-30T21:20:30.414Z,3.40
2022-07-30T21:23:04.987Z,4.20
2022-07-30T21:25:34.877Z,3.05
2022-07-30T21:28:27.751Z,2.90
2022-07-30T21:30:57.046Z,2.60
2022-07-30T21:33:31.259Z,3.10
2022-07-30T21:35:59.698Z,3.20
2022-07-30T21:38:27.723Z,2.78
2022-07-30T21:40:57.927Z,2.80
2022-07-30T21:43:30.152Z,2.80
2022-07-30T21:45:58.369Z,3.03
2022-07-30T21:48:26.477Z,2.92
2022-07-30T21:50:55.008Z,2.90
2022-07-30T21:53:29.921Z,2.92
2022-07-30T21:56:12.782Z,3.78
2022-07-30T21:58:40.747Z,2.70
2022-07-30T22:01:17.317Z,3.38
2022-07-30T22:04:04.538Z,3.40
2022-07-30T22:06:34.455Z,3.72
2022-07-30T22:09:03.474Z,4.40
2022-07-30T22:11:42.472Z,2.80
2022-07-30T22:14:10.922Z,3.60
2022-07-30T22:16:45.896Z,4.72
2022-07-30T22:19:14.753Z,2.85
2022-07-30T22:21:46.285Z,3.40
2022-07-30T22:24:29.473Z,3.83
2022-07-30T22:27:01.305Z,2.90
2022-07-30T22:29:34.142Z,2.92
2022-07-30T22:32:05.526Z,2.33
2022-07-30T22:34:33.799Z,3.00
2022-07-30T22:37:04.035Z,2.97
2022-07-30T22:39:50.702Z,3.25
2022-07-30T22:42:24.378Z,2.70
2022-07-30T22:44:54.849Z,2.55
2022-07-30T22:47:50.305Z,3.75
2022-07-30T22:50:12.812Z,2.83
2022-07-30T22:52:57.648Z,3.25
2022-07-30T22:55:33.263Z,3.38
2022-07-30T22:58:03.166Z,3.03
2022-07-30T23:00:31.440Z,3.03
2022-07-30T23:03:00.326Z,3.20
2022-07-30T23:05:28.272Z,2.78
2022-07-30T23:07:57.439Z,3.25
2022-07-30T23:10:27.735Z,3.17
2022-07-30T23:12:56.884Z,3.00
2022-07-30T23:15:28.416Z,3.00
2022-07-30T23:17:56.440Z,2.90
2022-07-30T23:20:26.404Z,3.03
2022-07-30T23:22:54.228Z,2.90
2022-07-30T23:25:22.936Z,3.10
2022-07-30T23:27:52.043Z,3.10
2022-07-30T23:30:20.157Z,3.05
2022-07-30T23:32:49.649Z,2.92
2022-07-30T23:35:17.572Z,2.95
2022-07-30T23:37:48.397Z,2.97
2022-07-30T23:40:17.837Z,3.00
2022-07-30T23:42:45.713Z,3.10
2022-07-30T23:45:13.960Z,3.10
2022-07-30T23:48:00.668Z,3.08
2022-07-30T23:50:32.148Z,2.92
2022-07-30T23:52:59.850Z,2.60
2022-07-30T23:55:28.156Z,2.97
2022-07-30T23:57:56.095Z,2.67
